createdAt,value
2023-03-07T00:02:22.466Z,101441.59
2023-03-07T00:05:00.335Z,101446.81
2023-03-07T00:07:30.310Z,101454.50
2023-03-07T00:10:00.976Z,101456.97
2023-03-07T00:12:30.969Z,101464.13
2023-03-07T00:15:00.761Z,101466.34
2023-03-07T00:17:30.726Z,101467.97
2023-03-07T00:20:00.595Z,101466.88
2023-03-07T00:22:30.438Z,101473.50
2023-03-07T00:25:00.448Z,101474.31
2023-03-07T00:27:33.141Z,101476.78
2023-03-07T00:30:04.379Z,101481.47
2023-03-07T00:32:35.235Z,101486.97
2023-03-07T00:35:05.291Z,101493.31
2023-03-07T00:37:35.192Z,101496.59
2023-03-07T00:40:05.998Z,101509.03
2023-03-07T00:42:36.030Z,101510.09
2023-03-07T00:45:06.252Z,101504.03
2023-03-07T00:47:36.330Z,101514.78
2023-03-07T00:50:06.577Z,101517.53
2023-03-07T00:52:36.851Z,101517.53
2023-03-07T00:55:07.807Z,101520.31
2023-03-07T00:57:38.061Z,101523.34
2023-03-07T01:00:08.616Z,101527.47
2023-03-07T01:02:38.731Z,101536.22
2023-03-07T01:05:09.216Z,101536.00
2023-03-07T01:07:39.332Z,101545.13
2023-03-07T01:10:09.607Z,101539.88
2023-03-07T01:12:39.650Z,101548.69
2023-03-07T01:15:10.168Z,101559.69
2023-03-07T01:17:41.137Z,101557.25
2023-03-07T01:20:11.904Z,101565.22
2023-03-07T01:22:42.175Z,101564.69
2023-03-07T01:25:12.586Z,101577.66
2023-03-07T01:27:43.691Z,101574.91
2023-03-07T01:30:14.432Z,101580.13
2023-03-07T01:32:44.598Z,101583.72
2023-03-07T01:35:14.823Z,101583.41
2023-03-07T01:37:44.988Z,101577.59
2023-03-07T01:43:25.456Z,101585.03
2023-03-07T01:46:19.838Z,101593.84
2023-03-07T01:48:58.523Z,101592.19
2023-03-07T01:51:55.852Z,101590.25
2023-03-07T01:54:28.057Z,101604.56
2023-03-07T01:56:58.700Z,101597.13
2023-03-07T01:59:35.191Z,101600.41
2023-03-07T02:05:35.292Z,101600.41
2023-03-07T02:08:06.600Z,101610.34
2023-03-07T02:10:39.194Z,101605.84
2023-03-07T02:13:09.831Z,101608.91
2023-03-07T02:15:40.747Z,101605.84
2023-03-07T02:18:12.536Z,101615.78
2023-03-07T02:21:04.765Z,101621.81
2023-03-07T02:24:07.564Z,101619.38
2023-03-07T02:26:47.804Z,101622.34
2023-03-07T02:29:18.510Z,101625.41
2023-03-07T02:32:06.700Z,101626.75
2023-03-07T02:34:37.209Z,101623.16
2023-03-07T02:40:21.528Z,101629.19
2023-03-07T02:43:11.755Z,101628.38
2023-03-07T02:45:59.891Z,101628.91
2023-03-07T02:48:48.564Z,101644.34
2023-03-07T02:51:36.631Z,101643.25
2023-03-07T02:54:07.133Z,101641.81
2023-03-07T02:56:37.333Z,101638.75
2023-03-07T02:59:07.662Z,101627.72
2023-03-07T03:01:37.847Z,101631.31
2023-03-07T03:04:26.268Z,101643.16
2023-03-07T03:06:56.470Z,101637.63
2023-03-07T03:09:26.796Z,101629.38
2023-03-07T03:11:57.103Z,101637.38
2023-03-07T03:14:29.615Z,101638.16
2023-03-07T03:17:18.829Z,101639.00
2023-03-07T03:19:49.014Z,101626.31
2023-03-07T03:25:07.406Z,101626.03
2023-03-07T03:27:37.816Z,101619.38
2023-03-07T03:30:26.289Z,101616.31
2023-03-07T03:33:14.776Z,101619.09
2023-03-07T03:36:09.788Z,101620.72
2023-03-07T03:38:41.377Z,101611.34
2023-03-07T03:41:20.397Z,101603.06
2023-03-07T03:44:08.809Z,101600.84
2023-03-07T03:46:39.799Z,101595.03
2023-03-07T03:49:28.226Z,101592.28
2023-03-07T03:52:16.575Z,101582.38
2023-03-07T03:54:46.662Z,101579.31
2023-03-07T03:57:20.002Z,101583.72
2023-03-07T04:00:10.939Z,101585.38
2023-03-07T04:02:59.625Z,101574.31
2023-03-07T04:08:16.862Z,101573.22
2023-03-07T04:10:47.571Z,101572.38
2023-03-07T04:13:37.003Z,101566.59
2023-03-07T04:16:25.714Z,101566.28
2023-03-07T04:18:56.479Z,101559.63
2023-03-07T04:24:12.658Z,101556.56
2023-03-07T04:27:01.060Z,101548.28
2023-03-07T04:29:32.999Z,101553.53
2023-03-07T04:32:14.848Z,101548.81
2023-03-07T04:34:44.948Z,101544.94
2023-03-07T04:37:14.830Z,101540.25
2023-03-07T04:40:02.870Z,101530.88
2023-03-07T04:42:32.975Z,101529.22
2023-03-07T04:45:04.809Z,101526.97
2023-03-07T04:47:35.089Z,101523.06
2023-03-07T04:50:23.324Z,101513.69
2023-03-07T04:53:11.613Z,101512.03
2023-03-07T04:55:42.100Z,101513.69
2023-03-07T04:58:15.138Z,101508.69
2023-03-07T05:01:04.986Z,101499.59
2023-03-07T05:03:53.185Z,101499.28
2023-03-07T05:09:11.501Z,101494.28
2023-03-07T05:15:03.655Z,101479.38
2023-03-07T05:17:52.124Z,101476.31
2023-03-07T05:20:40.246Z,101471.31
2023-03-07T05:23:10.236Z,101467.75
2023-03-07T05:25:41.538Z,101453.63
2023-03-07T05:28:13.003Z,101452.00
2023-03-07T05:30:43.781Z,101448.09
2023-03-07T05:33:14.118Z,101442.00
2023-03-07T05:36:03.670Z,101442.00
2023-03-07T05:38:35.468Z,101435.34
2023-03-07T05:41:05.729Z,101427.88
2023-03-07T05:43:35.923Z,101419.31
2023-03-07T05:46:05.840Z,101415.44
2023-03-07T05:48:36.212Z,101415.13
2023-03-07T05:51:25.478Z,101407.34
2023-03-07T05:54:13.502Z,101404.59
2023-03-07T05:57:02.642Z,101390.78
2023-03-07T05:59:32.825Z,101389.66
2023-03-07T06:02:03.227Z,101390.47
2023-03-07T06:07:18.785Z,101377.00
2023-03-07T06:09:49.576Z,101373.91
2023-03-07T06:15:06.477Z,101361.47
2023-03-07T06:17:38.240Z,101358.72
2023-03-07T06:20:09.888Z,101354.81
2023-03-07T06:22:58.557Z,101353.69
2023-03-07T06:28:14.573Z,101342.03
2023-03-07T06:30:44.628Z,101332.63
2023-03-07T06:33:15.220Z,101323.53
2023-03-07T06:36:08.741Z,101316.06
2023-03-07T06:38:40.918Z,101313.28
2023-03-07T06:41:11.356Z,101314.63
2023-03-07T06:44:00.994Z,101308.00
2023-03-07T06:46:34.543Z,101297.75
2023-03-07T06:49:22.739Z,101293.38
2023-03-07T06:52:11.136Z,101290.31
2023-03-07T06:54:41.081Z,101288.03
2023-03-07T06:57:29.482Z,101274.56
2023-03-07T07:00:00.008Z,101280.88
2023-03-07T07:08:03.984Z,101263.72
2023-03-07T07:10:34.157Z,101259.56
2023-03-07T07:13:04.715Z,101243.78
2023-03-07T07:15:35.666Z,101246.75
2023-03-07T07:18:05.609Z,101235.50
2023-03-07T07:20:37.011Z,101226.63
2023-03-07T07:23:07.225Z,101220.75
2023-03-07T07:25:37.485Z,101219.13
2023-03-07T07:28:07.793Z,101213.59
2023-03-07T07:30:38.199Z,101210.84
2023-03-07T07:33:08.764Z,101204.19
2023-03-07T07:35:39.335Z,101202.28
2023-03-07T07:38:27.434Z,101199.50
2023-03-07T07:40:58.448Z,101194.78
2023-03-07T07:46:21.657Z,101180.19
2023-03-07T07:48:51.943Z,101185.09
2023-03-07T07:51:22.057Z,101174.84
2023-03-07T07:53:52.822Z,101166.75
2023-03-07T07:56:23.446Z,101164.31
2023-03-07T07:59:11.940Z,101164.31
2023-03-07T08:01:42.112Z,101160.41
2023-03-07T08:07:16.738Z,101157.34
2023-03-07T08:10:05.270Z,101160.41
2023-03-07T08:12:53.852Z,101146.91
2023-03-07T08:15:42.958Z,101148.25
2023-03-07T08:18:13.651Z,101147.41
2023-03-07T08:21:02.360Z,101146.28
2023-03-07T08:23:32.646Z,101143.53
2023-03-07T08:26:08.193Z,101141.38
2023-03-07T08:28:40.004Z,101135.56
2023-03-07T08:34:25.251Z,101131.88
2023-03-07T08:37:13.501Z,101126.00
2023-03-07T08:39:43.953Z,101125.72
2023-03-07T08:42:15.406Z,101112.72
2023-03-07T08:44:45.534Z,101111.59
2023-03-07T08:47:15.614Z,101118.75
2023-03-07T08:49:45.527Z,101112.09
2023-03-07T08:52:15.512Z,101103.81
2023-03-07T08:54:45.314Z,101110.47
2023-03-07T08:57:15.162Z,101097.16
2023-03-07T08:59:46.100Z,101092.75
2023-03-07T09:02:34.410Z,101094.06
2023-03-07T09:05:04.631Z,101091.63
2023-03-07T09:07:34.762Z,101101.03
2023-03-07T09:10:04.862Z,101096.34
2023-03-07T09:12:36.196Z,101097.16
2023-03-07T09:15:06.421Z,101091.44
2023-03-07T09:17:36.520Z,101092.25
2023-03-07T09:20:08.101Z,101094.22
2023-03-07T09:22:38.243Z,101089.50
2023-03-07T09:25:08.681Z,101091.44
2023-03-07T09:27:38.979Z,101090.63
2023-03-07T09:30:10.177Z,101089.50
2023-03-07T09:32:40.064Z,101090.31
2023-03-07T09:35:11.177Z,101093.88
2023-03-07T09:37:41.220Z,101090.63
2023-03-07T09:40:19.543Z,101082.84
2023-03-07T09:43:24.109Z,101096.34
2023-03-07T09:46:44.221Z,101093.88
2023-03-07T09:49:43.013Z,101103.81
2023-03-07T09:52:20.535Z,101116.47
2023-03-07T09:55:02.277Z,101113.72
2023-03-07T09:57:42.997Z,101116.81
2023-03-07T10:00:24.009Z,101117.09
2023-03-07T10:03:41.290Z,101114.03
2023-03-07T10:06:41.673Z,101114.03
2023-03-07T10:09:27.130Z,101102.50
2023-03-07T10:12:28.221Z,101116.81
2023-03-07T10:15:05.776Z,101117.09
2023-03-07T10:18:02.721Z,101113.22
2023-03-07T10:20:44.690Z,101123.13
2023-03-07T10:23:26.489Z,101112.09
2023-03-07T10:26:05.360Z,101122.81
2023-03-07T10:28:42.263Z,101116.47
2023-03-07T10:31:41.628Z,101122.00
2023-03-07T10:34:32.776Z,101125.56
2023-03-07T10:37:14.563Z,101121.19
2023-03-07T10:39:54.619Z,101124.75
2023-03-07T10:42:27.311Z,101134.19
2023-03-07T10:44:57.668Z,101133.38
2023-03-07T10:47:30.248Z,101138.56
2023-03-07T10:50:09.452Z,101135.31
2023-03-07T10:52:49.820Z,101136.44
2023-03-07T10:55:43.533Z,101151.88
2023-03-07T10:58:25.160Z,101151.06
2023-03-07T11:01:09.021Z,101146.69
2023-03-07T11:04:05.010Z,101151.88
2023-03-07T11:06:39.370Z,101150.75
2023-03-07T11:09:17.266Z,101159.03
2023-03-07T11:12:09.100Z,101149.94
2023-03-07T11:15:20.538Z,101168.97
2023-03-07T11:17:52.940Z,101165.69
2023-03-07T11:20:31.740Z,101173.69
2023-03-07T11:23:21.498Z,101170.09
2023-03-07T11:25:52.521Z,101168.44
2023-03-07T11:28:25.425Z,101168.44
2023-03-07T11:31:02.680Z,101172.34
2023-03-07T11:33:59.214Z,101175.09
2023-03-07T11:36:39.293Z,101176.72
2023-03-07T11:39:18.462Z,101179.81
2023-03-07T11:41:54.580Z,101178.19
2023-03-07T11:44:27.989Z,101181.75
2023-03-07T11:47:24.887Z,101182.59
2023-03-07T11:50:19.969Z,101179.81
2023-03-07T11:52:59.093Z,101190.88
2023-03-07T11:55:37.742Z,101191.66
2023-03-07T11:58:25.755Z,101189.75
2023-03-07T12:01:01.993Z,101188.09
2023-03-07T12:03:54.445Z,101195.56
2023-03-07T12:07:01.517Z,101197.19
2023-03-07T12:09:54.474Z,101190.03
2023-03-07T12:12:43.806Z,101196.41
2023-03-07T12:15:36.779Z,101198.31
2023-03-07T12:18:40.007Z,101203.34
2023-03-07T12:21:30.735Z,101213.25
2023-03-07T12:24:31.659Z,101221.53
2023-03-07T12:27:26.789Z,101224.31
2023-03-07T12:30:03.581Z,101222.06
2023-03-07T12:32:37.851Z,101233.09
2023-03-07T12:35:41.819Z,101234.22
2023-03-07T12:39:13.257Z,101233.44
2023-03-07T12:41:55.475Z,101237.81
2023-03-07T12:44:51.248Z,101240.88
2023-03-07T12:47:52.911Z,101246.09
2023-03-07T12:50:39.968Z,101254.41
2023-03-07T12:53:25.656Z,101253.56
2023-03-07T12:56:09.173Z,101255.53
2023-03-07T12:59:04.615Z,101260.72
2023-03-07T13:01:57.986Z,101266.56
2023-03-07T13:04:40.176Z,101274.34
2023-03-07T13:07:27.393Z,101271.25
2023-03-07T13:10:01.205Z,101266.56
2023-03-07T13:12:31.830Z,101281.50
2023-03-07T13:15:09.540Z,101279.53
2023-03-07T13:17:59.456Z,101280.66
2023-03-07T13:20:42.333Z,101289.47
2023-03-07T13:23:30.950Z,101303.28
2023-03-07T13:26:07.539Z,101301.63
2023-03-07T13:28:47.094Z,101314.84
2023-03-07T13:31:19.991Z,101311.88
2023-03-07T13:33:53.006Z,101318.22
2023-03-07T13:37:52.074Z,101324.25
2023-03-07T13:40:31.158Z,101331.72
2023-03-07T13:43:01.434Z,101333.97
2023-03-07T13:45:52.102Z,101338.97
2023-03-07T13:51:16.865Z,101345.50
2023-03-07T13:53:53.436Z,101355.41
2023-03-07T13:56:29.610Z,101350.72
2023-03-07T13:59:29.865Z,101361.44
2023-03-07T14:02:06.761Z,101366.19
2023-03-07T14:04:56.518Z,101371.38
2023-03-07T14:07:38.621Z,101369.22
2023-03-07T14:10:26.804Z,101363.09
2023-03-07T14:13:07.260Z,101372.50
2023-03-07T14:15:50.123Z,101376.41
2023-03-07T14:18:50.800Z,101386.66
2023-03-07T14:21:48.764Z,101385.28
2023-03-07T14:24:25.623Z,101381.41
2023-03-07T14:27:00.808Z,101379.78
2023-03-07T14:29:33.108Z,101383.03
2023-03-07T14:32:03.330Z,101374.47
2023-03-07T14:34:36.556Z,101388.69
2023-03-07T14:37:15.868Z,101390.72
2023-03-07T14:40:10.933Z,101390.72
2023-03-07T14:42:56.804Z,101398.22
2023-03-07T14:45:42.986Z,101396.56
2023-03-07T14:48:43.423Z,101401.78
2023-03-07T14:51:20.695Z,101407.28
2023-03-07T14:53:52.861Z,101403.41
2023-03-07T14:56:39.525Z,101403.91
2023-03-07T14:59:28.118Z,101407.28
2023-03-07T15:02:21.775Z,101411.19
2023-03-07T15:04:57.060Z,101409.75
2023-03-07T15:07:27.134Z,101412.81
2023-03-07T15:09:57.563Z,101409.75
2023-03-07T15:12:30.800Z,101424.19
2023-03-07T15:15:07.757Z,101425.94
2023-03-07T15:17:46.870Z,101436.56
2023-03-07T15:20:24.352Z,101436.38
2023-03-07T15:23:07.615Z,101443.81
2023-03-07T15:25:40.976Z,101442.19
2023-03-07T15:28:23.995Z,101439.66
2023-03-07T15:30:55.419Z,101441.97
2023-03-07T15:36:22.445Z,101442.72
2023-03-07T15:38:55.238Z,101439.22
2023-03-07T15:41:32.745Z,101448.66
2023-03-07T15:44:14.851Z,101455.28
2023-03-07T15:47:00.123Z,101448.75
2023-03-07T15:49:51.341Z,101451.78
2023-03-07T15:52:29.138Z,101448.41
2023-03-07T15:55:02.359Z,101454.53
2023-03-07T15:57:54.528Z,101448.22
2023-03-07T16:00:44.909Z,101442.69
2023-03-07T16:03:31.551Z,101441.91
2023-03-07T16:06:03.465Z,101436.97
2023-03-07T16:08:36.184Z,101438.81
2023-03-07T16:11:10.458Z,101436.56
2023-03-07T16:13:45.066Z,101436.06
2023-03-07T16:16:24.876Z,101436.56
2023-03-07T16:18:56.270Z,101439.84
2023-03-07T16:21:27.542Z,101444.53
2023-03-07T16:23:57.664Z,101434.31
2023-03-07T16:26:27.637Z,101439.63
2023-03-07T16:28:58.366Z,101434.94
2023-03-07T16:31:28.558Z,101431.03
2023-03-07T16:33:58.608Z,101430.34
2023-03-07T16:36:28.759Z,101435.03
2023-03-07T16:38:58.995Z,101431.97
2023-03-07T16:41:29.250Z,101434.09
2023-03-07T16:44:01.935Z,101425.09
2023-03-07T16:46:32.303Z,101427.75
2023-03-07T16:49:03.995Z,101433.28
2023-03-07T16:51:35.039Z,101425.53
2023-03-07T16:54:08.270Z,101425.00
2023-03-07T16:56:47.651Z,101423.06
2023-03-07T16:59:23.110Z,101427.16
2023-03-07T17:01:56.337Z,101417.03
2023-03-07T17:04:44.588Z,101416.53
2023-03-07T17:07:20.659Z,101420.09
2023-03-07T17:09:50.768Z,101407.41
2023-03-07T17:12:27.966Z,101414.66
2023-03-07T17:15:00.017Z,101408.31
2023-03-07T17:17:38.928Z,101400.03
2023-03-07T17:20:10.454Z,101401.38
2023-03-07T17:22:41.981Z,101401.16
2023-03-07T17:25:12.916Z,101404.25
2023-03-07T17:28:07.458Z,101395.31
2023-03-07T17:30:37.665Z,101390.31
2023-03-07T17:33:08.660Z,101396.34
2023-03-07T17:35:41.544Z,101387.28
2023-03-07T17:38:11.628Z,101388.06
2023-03-07T17:40:41.724Z,101380.63
2023-03-07T17:43:13.368Z,101388.06
2023-03-07T17:45:43.517Z,101389.72
2023-03-07T17:48:13.614Z,101377.88
2023-03-07T17:50:43.959Z,101377.88
2023-03-07T17:53:14.749Z,101377.03
2023-03-07T17:55:44.775Z,101369.88
2023-03-07T17:58:15.059Z,101376.22
2023-03-07T18:00:45.169Z,101376.50
2023-03-07T18:03:15.481Z,101376.22
2023-03-07T18:05:45.539Z,101377.88
2023-03-07T18:08:15.763Z,101375.38
2023-03-07T18:10:45.883Z,101367.72
2023-03-07T18:13:17.191Z,101375.72
2023-03-07T18:15:50.918Z,101368.22
2023-03-07T18:18:20.975Z,101359.44
2023-03-07T18:21:00.189Z,101348.91
2023-03-07T18:23:32.038Z,101350.03
2023-03-07T18:26:04.435Z,101346.16
2023-03-07T18:28:36.048Z,101343.38
2023-03-07T18:31:27.619Z,101347.25
2023-03-07T18:33:58.349Z,101344.50
2023-03-07T18:36:28.400Z,101339.31
2023-03-07T18:38:58.371Z,101341.75
2023-03-07T18:41:29.640Z,101340.94
2023-03-07T18:44:00.815Z,101345.16
2023-03-07T18:46:34.454Z,101344.63
2023-03-07T18:49:05.561Z,101340.75
2023-03-07T18:51:35.688Z,101346.28
2023-03-07T18:54:05.908Z,101336.34
2023-03-07T18:56:36.017Z,101336.34
2023-03-07T18:59:06.606Z,101337.47
2023-03-07T19:01:38.366Z,101328.34
2023-03-07T19:04:09.719Z,101331.41
2023-03-07T19:06:41.792Z,101334.16
2023-03-07T19:09:25.975Z,101322.00
2023-03-07T19:11:56.102Z,101316.75
2023-03-07T19:14:25.938Z,101310.44
2023-03-07T19:16:55.823Z,101309.13
2023-03-07T19:19:25.623Z,101312.41
2023-03-07T19:21:55.500Z,101302.47
2023-03-07T19:24:25.340Z,101307.16
2023-03-07T19:26:55.164Z,101305.53
2023-03-07T19:29:25.031Z,101313.81
2023-03-07T19:31:55.183Z,101310.84
2023-03-07T19:34:25.249Z,101314.41
2023-03-07T19:36:55.166Z,101314.75
2023-03-07T19:39:25.206Z,101318.31
2023-03-07T19:41:55.086Z,101313.94
2023-03-07T19:44:26.303Z,101310.84
2023-03-07T19:46:55.886Z,101306.47
2023-03-07T19:49:28.580Z,101300.94
2023-03-07T19:51:58.636Z,101302.06
2023-03-07T19:54:28.823Z,101300.13
2023-03-07T19:56:58.882Z,101304.31
2023-03-07T19:59:28.751Z,101309.31
2023-03-07T20:01:58.853Z,101301.53
2023-03-07T20:04:28.903Z,101303.78
2023-03-07T20:06:58.763Z,101304.63
2023-03-07T20:09:28.573Z,101312.38
2023-03-07T20:11:58.511Z,101302.16
2023-03-07T20:14:28.349Z,101304.09
2023-03-07T20:16:58.276Z,101308.00
2023-03-07T20:19:28.364Z,101302.47
2023-03-07T20:21:58.322Z,101305.22
2023-03-07T20:24:28.264Z,101305.22
2023-03-07T20:26:58.257Z,101304.72
2023-03-07T20:29:28.393Z,101307.47
2023-03-07T20:31:58.282Z,101308.31
2023-03-07T20:34:28.520Z,101308.78
2023-03-07T20:36:58.603Z,101313.84
2023-03-07T20:39:28.888Z,101312.19
2023-03-07T20:41:59.173Z,101310.56
2023-03-07T20:44:29.155Z,101313.59
2023-03-07T20:46:59.052Z,101311.34
2023-03-07T20:49:29.228Z,101313.00
2023-03-07T20:51:59.644Z,101307.28
2023-03-07T20:54:29.699Z,101316.34
2023-03-07T20:56:59.510Z,101311.97
2023-03-07T20:59:29.413Z,101311.97
2023-03-07T21:01:59.395Z,101316.69
2023-03-07T21:04:29.600Z,101311.69
2023-03-07T21:06:59.906Z,101313.59
2023-03-07T21:09:30.570Z,101316.34
2023-03-07T21:12:00.590Z,101319.44
2023-03-07T21:14:30.697Z,101312.81
2023-03-07T21:17:00.748Z,101311.47
2023-03-07T21:19:30.579Z,101309.53
2023-03-07T21:22:01.116Z,101311.16
2023-03-07T21:24:31.081Z,101318.59
2023-03-07T21:27:01.331Z,101318.31
2023-03-07T21:29:31.427Z,101315.84
2023-03-07T21:32:01.415Z,101316.47
2023-03-07T21:34:31.356Z,101315.97
2023-03-07T21:37:01.233Z,101320.88
2023-03-07T21:39:31.088Z,101324.75
2023-03-07T21:42:00.959Z,101325.88
2023-03-07T21:44:30.922Z,101320.38
2023-03-07T21:47:00.735Z,101328.84
2023-03-07T21:49:30.790Z,101322.00
2023-03-07T21:52:00.691Z,101331.41
2023-03-07T21:54:30.538Z,101329.75
2023-03-07T21:57:00.872Z,101331.41
2023-03-07T21:59:31.364Z,101333.03
2023-03-07T22:02:01.483Z,101324.75
2023-03-07T22:04:32.103Z,101328.84
2023-03-07T22:07:02.688Z,101333.84
2023-03-07T22:09:33.062Z,101341.09
2023-03-07T22:12:07.259Z,101336.41
2023-03-07T22:14:45.634Z,101345.50
2023-03-07T22:17:15.584Z,101338.31
2023-03-07T22:19:45.628Z,101334.75
2023-03-07T22:22:15.505Z,101348.16
2023-03-07T22:24:45.389Z,101345.09
2023-03-07T22:27:15.206Z,101346.19
2023-03-07T22:32:30.443Z,101349.88
2023-03-07T22:35:19.016Z,101341.00
2023-03-07T22:37:49.049Z,101345.19
2023-03-07T22:40:19.121Z,101355.63
2023-03-07T22:42:48.958Z,101351.72
2023-03-07T22:45:18.899Z,101359.28
2023-03-07T22:47:48.960Z,101362.03
2023-03-07T22:50:19.285Z,101366.44
2023-03-07T22:52:49.364Z,101367.28
2023-03-07T22:59:19.092Z,101370.03
2023-03-07T23:01:49.123Z,101377.06
2023-03-07T23:04:19.267Z,101378.59
2023-03-07T23:06:49.169Z,101390.88
2023-03-07T23:09:19.075Z,101388.72
2023-03-07T23:11:50.347Z,101397.00
2023-03-07T23:14:31.040Z,101396.47
2023-03-07T23:17:01.049Z,101400.56
2023-03-07T23:19:31.655Z,101402.31
2023-03-07T23:22:01.895Z,101406.38
2023-03-07T23:24:31.892Z,101408.34
2023-03-07T23:27:01.761Z,101419.66
2023-03-07T23:29:31.606Z,101420.50
2023-03-07T23:32:05.765Z,101426.00
2023-03-07T23:34:38.019Z,101422.63
2023-03-07T23:37:08.025Z,101433.97
2023-03-07T23:39:37.862Z,101433.47
2023-03-07T23:42:07.785Z,101445.00
2023-03-07T23:44:38.002Z,101447.25
2023-03-07T23:47:08.410Z,101442.25
2023-03-07T23:49:38.305Z,101452.78
2023-03-07T23:52:08.295Z,101459.13
2023-03-07T23:54:38.146Z,101461.66
2023-03-07T23:57:08.464Z,101466.56
2023-03-07T23:59:38.436Z,101467.41
